sensor_id;sensor_type;location;lat;lon;timestamp;P1;durP1;ratioP1;P2;durP2;ratioP2
7685;SDS011;3885;51.474;-2.576;2023-04-03T00:00:31;1.80;;;1.20;;
7685;SDS011;3885;51.474;-2.576;2023-04-03T00:02:58;3.03;;;1.93;;
7685;SDS011;3885;51.474;-2.576;2023-04-03T00:05:27;3.90;;;1.63;;
7685;SDS011;3885;51.474;-2.576;2023-04-03T00:07:53;1.30;;;1.20;;
7685;SDS011;3885;51.474;-2.576;2023-04-03T00:10:20;7.90;;;1.37;;
7685;SDS011;3885;51.474;-2.576;2023-04-03T00:12:47;4.83;;;1.10;;
7685;SDS011;3885;51.474;-2.576;2023-04-03T00:15:14;4.13;;;1.93;;
7685;SDS011;3885;51.474;-2.576;2023-04-03T00:17:41;1.03;;;1.03;;
7685;SDS011;3885;51.474;-2.576;2023-04-03T00:20:09;1.30;;;1.20;;
7685;SDS011;3885;51.474;-2.576;2023-04-03T00:22:37;4.40;;;1.80;;
7685;SDS011;3885;51.474;-2.576;2023-04-03T00:25:05;3.63;;;1.27;;
7685;SDS011;3885;51.474;-2.576;2023-04-03T00:27:33;1.60;;;1.40;;
7685;SDS011;3885;51.474;-2.576;2023-04-03T00:30:00;1.70;;;1.60;;
7685;SDS011;3885;51.474;-2.576;2023-04-03T00:32:27;4.30;;;1.33;;
7685;SDS011;3885;51.474;-2.576;2023-04-03T00:34:54;1.37;;;1.27;;
7685;SDS011;3885;51.474;-2.576;2023-04-03T00:37:21;3.97;;;1.43;;
7685;SDS011;3885;51.474;-2.576;2023-04-03T00:39:49;1.50;;;1.40;;
7685;SDS011;3885;51.474;-2.576;2023-04-03T00:42:16;3.40;;;1.70;;
7685;SDS011;3885;51.474;-2.576;2023-04-03T00:47:44;3.20;;;1.70;;
7685;SDS011;3885;51.474;-2.576;2023-04-03T00:50:11;8.00;;;2.07;;
7685;SDS011;3885;51.474;-2.576;2023-04-03T00:52:38;5.83;;;1.40;;
7685;SDS011;3885;51.474;-2.576;2023-04-03T00:55:08;1.67;;;1.57;;
7685;SDS011;3885;51.474;-2.576;2023-04-03T00:57:35;2.67;;;1.43;;
7685;SDS011;3885;51.474;-2.576;2023-04-03T01:00:04;5.43;;;2.10;;
7685;SDS011;3885;51.474;-2.576;2023-04-03T01:02:32;1.60;;;1.20;;
7685;SDS011;3885;51.474;-2.576;2023-04-03T01:04:59;5.60;;;1.90;;
7685;SDS011;3885;51.474;-2.576;2023-04-03T01:07:28;4.77;;;1.20;;
7685;SDS011;3885;51.474;-2.576;2023-04-03T01:09:59;1.80;;;1.63;;
7685;SDS011;3885;51.474;-2.576;2023-04-03T01:12:30;2.53;;;1.60;;
7685;SDS011;3885;51.474;-2.576;2023-04-03T01:14:59;2.30;;;1.23;;
7685;SDS011;3885;51.474;-2.576;2023-04-03T01:17:29;4.60;;;1.10;;
7685;SDS011;3885;51.474;-2.576;2023-04-03T01:20:08;2.70;;;1.40;;
7685;SDS011;3885;51.474;-2.576;2023-04-03T01:22:42;2.10;;;1.33;;
7685;SDS011;3885;51.474;-2.576;2023-04-03T01:25:18;2.27;;;1.40;;
7685;SDS011;3885;51.474;-2.576;2023-04-03T01:27:46;2.77;;;1.50;;
7685;SDS011;3885;51.474;-2.576;2023-04-03T01:30:14;7.20;;;1.83;;
7685;SDS011;3885;51.474;-2.576;2023-04-03T01:32:44;1.63;;;1.30;;
7685;SDS011;3885;51.474;-2.576;2023-04-03T01:35:11;1.70;;;1.30;;
7685;SDS011;3885;51.474;-2.576;2023-04-03T01:37:38;1.87;;;1.30;;
7685;SDS011;3885;51.474;-2.576;2023-04-03T01:40:06;2.17;;;1.83;;
7685;SDS011;3885;51.474;-2.576;2023-04-03T01:42:34;5.40;;;1.67;;
7685;SDS011;3885;51.474;-2.576;2023-04-03T01:45:01;3.40;;;1.67;;
7685;SDS011;3885;51.474;-2.576;2023-04-03T01:47:28;4.30;;;1.47;;
7685;SDS011;3885;51.474;-2.576;2023-04-03T01:49:56;5.67;;;2.20;;
7685;SDS011;3885;51.474;-2.576;2023-04-03T01:52:23;3.47;;;2.00;;
7685;SDS011;3885;51.474;-2.576;2023-04-03T01:54:50;3.93;;;2.17;;
7685;SDS011;3885;51.474;-2.576;2023-04-03T01:57:17;9.73;;;1.40;;
7685;SDS011;3885;51.474;-2.576;2023-04-03T01:59:44;2.67;;;2.00;;
7685;SDS011;3885;51.474;-2.576;2023-04-03T02:02:11;3.13;;;1.23;;
7685;SDS011;3885;51.474;-2.576;2023-04-03T02:04:39;4.57;;;1.60;;
7685;SDS011;3885;51.474;-2.576;2023-04-03T02:07:08;3.13;;;1.80;;
7685;SDS011;3885;51.474;-2.576;2023-04-03T02:09:35;8.07;;;1.50;;
7685;SDS011;3885;51.474;-2.576;2023-04-03T02:12:02;2.80;;;1.50;;
7685;SDS011;3885;51.474;-2.576;2023-04-03T02:14:29;3.63;;;1.60;;
7685;SDS011;3885;51.474;-2.576;2023-04-03T02:16:56;3.13;;;1.90;;
7685;SDS011;3885;51.474;-2.576;2023-04-03T02:19:23;3.70;;;1.97;;
7685;SDS011;3885;51.474;-2.576;2023-04-03T02:21:50;2.83;;;1.50;;
7685;SDS011;3885;51.474;-2.576;2023-04-03T02:24:19;2.60;;;1.50;;
7685;SDS011;3885;51.474;-2.576;2023-04-03T02:26:46;2.67;;;1.60;;
7685;SDS011;3885;51.474;-2.576;2023-04-03T02:29:13;2.07;;;1.60;;
7685;SDS011;3885;51.474;-2.576;2023-04-03T02:31:40;5.33;;;2.00;;
7685;SDS011;3885;51.474;-2.576;2023-04-03T02:34:07;2.00;;;1.67;;
7685;SDS011;3885;51.474;-2.576;2023-04-03T02:36:34;2.10;;;1.80;;
7685;SDS011;3885;51.474;-2.576;2023-04-03T02:39:01;5.07;;;1.60;;
7685;SDS011;3885;51.474;-2.576;2023-04-03T02:41:30;15.23;;;2.17;;
7685;SDS011;3885;51.474;-2.576;2023-04-03T02:44:00;3.90;;;1.23;;
7685;SDS011;3885;51.474;-2.576;2023-04-03T02:46:27;1.43;;;1.30;;
7685;SDS011;3885;51.474;-2.576;2023-04-03T02:48:54;3.70;;;1.67;;
7685;SDS011;3885;51.474;-2.576;2023-04-03T02:51:21;2.23;;;1.43;;
7685;SDS011;3885;51.474;-2.576;2023-04-03T02:53:49;1.63;;;1.50;;
7685;SDS011;3885;51.474;-2.576;2023-04-03T02:56:16;6.67;;;1.40;;
7685;SDS011;3885;51.474;-2.576;2023-04-03T02:58:46;2.80;;;2.07;;
7685;SDS011;3885;51.474;-2.576;2023-04-03T03:01:14;2.60;;;1.87;;
7685;SDS011;3885;51.474;-2.576;2023-04-03T03:03:41;2.93;;;1.37;;
7685;SDS011;3885;51.474;-2.576;2023-04-03T03:06:08;9.07;;;1.90;;
7685;SDS011;3885;51.474;-2.576;2023-04-03T03:08:36;3.97;;;1.90;;
7685;SDS011;3885;51.474;-2.576;2023-04-03T03:11:04;8.73;;;2.03;;
7685;SDS011;3885;51.474;-2.576;2023-04-03T03:13:31;2.47;;;1.60;;
7685;SDS011;3885;51.474;-2.576;2023-04-03T03:16:00;10.23;;;1.43;;
7685;SDS011;3885;51.474;-2.576;2023-04-03T03:18:27;3.27;;;1.70;;
7685;SDS011;3885;51.474;-2.576;2023-04-03T03:20:55;1.67;;;1.57;;
7685;SDS011;3885;51.474;-2.576;2023-04-03T03:23:24;2.07;;;1.87;;
7685;SDS011;3885;51.474;-2.576;2023-04-03T03:25:54;4.40;;;1.60;;
7685;SDS011;3885;51.474;-2.576;2023-04-03T03:28:21;4.40;;;1.60;;
7685;SDS011;3885;51.474;-2.576;2023-04-03T03:30:49;4.00;;;1.60;;
7685;SDS011;3885;51.474;-2.576;2023-04-03T03:33:18;4.03;;;1.67;;
7685;SDS011;3885;51.474;-2.576;2023-04-03T03:35:45;2.20;;;1.83;;
7685;SDS011;3885;51.474;-2.576;2023-04-03T03:38:12;1.67;;;1.57;;
7685;SDS011;3885;51.474;-2.576;2023-04-03T03:40:39;2.40;;;1.40;;
7685;SDS011;3885;51.474;-2.576;2023-04-03T03:43:06;1.70;;;1.50;;
7685;SDS011;3885;51.474;-2.576;2023-04-03T03:45:32;3.30;;;1.83;;
7685;SDS011;3885;51.474;-2.576;2023-04-03T03:48:00;10.93;;;1.57;;
7685;SDS011;3885;51.474;-2.576;2023-04-03T03:50:28;5.80;;;1.57;;
7685;SDS011;3885;51.474;-2.576;2023-04-03T03:52:55;3.67;;;1.30;;
7685;SDS011;3885;51.474;-2.576;2023-04-03T03:55:22;5.40;;;2.27;;
7685;SDS011;3885;51.474;-2.576;2023-04-03T03:57:49;2.43;;;1.83;;
7685;SDS011;3885;51.474;-2.576;2023-04-03T04:00:16;6.40;;;1.37;;
7685;SDS011;3885;51.474;-2.576;2023-04-03T04:02:43;8.50;;;1.33;;
7685;SDS011;3885;51.474;-2.576;2023-04-03T04:05:10;3.47;;;1.70;;
7685;SDS011;3885;51.474;-2.576;2023-04-03T04:07:39;2.10;;;1.90;;
7685;SDS011;3885;51.474;-2.576;2023-04-03T04:10:06;6.27;;;2.00;;
7685;SDS011;3885;51.474;-2.576;2023-04-03T04:12:34;3.60;;;1.80;;
7685;SDS011;3885;51.474;-2.576;2023-04-03T04:15:01;1.20;;;1.10;;
7685;SDS011;3885;51.474;-2.576;2023-04-03T04:17:28;4.17;;;1.60;;
7685;SDS011;3885;51.474;-2.576;2023-04-03T04:19:55;2.40;;;1.60;;
7685;SDS011;3885;51.474;-2.576;2023-04-03T04:22:22;3.53;;;1.90;;
7685;SDS011;3885;51.474;-2.576;2023-04-03T04:24:50;1.43;;;1.03;;
7685;SDS011;3885;51.474;-2.576;2023-04-03T04:27:17;2.50;;;1.60;;
7685;SDS011;3885;51.474;-2.576;2023-04-03T04:29:44;2.40;;;1.50;;
7685;SDS011;3885;51.474;-2.576;2023-04-03T04:32:11;2.33;;;2.13;;
7685;SDS011;3885;51.474;-2.576;2023-04-03T04:34:38;4.20;;;1.80;;
7685;SDS011;3885;51.474;-2.576;2023-04-03T04:37:05;4.13;;;2.10;;
7685;SDS011;3885;51.474;-2.576;2023-04-03T04:39:32;2.17;;;2.00;;
7685;SDS011;3885;51.474;-2.576;2023-04-03T04:42:01;5.30;;;2.00;;
7685;SDS011;3885;51.474;-2.576;2023-04-03T04:44:28;2.43;;;2.00;;
7685;SDS011;3885;51.474;-2.576;2023-04-03T04:46:55;5.13;;;1.80;;
7685;SDS011;3885;51.474;-2.576;2023-04-03T04:49:21;1.43;;;1.30;;
7685;SDS011;3885;51.474;-2.576;2023-04-03T04:51:48;3.07;;;1.63;;
7685;SDS011;3885;51.474;-2.576;2023-04-03T04:54:15;6.03;;;2.10;;
7685;SDS011;3885;51.474;-2.576;2023-04-03T04:56:42;1.30;;;1.20;;
7685;SDS011;3885;51.474;-2.576;2023-04-03T04:59:11;3.73;;;1.47;;
7685;SDS011;3885;51.474;-2.576;2023-04-03T05:01:38;7.43;;;2.30;;
7685;SDS011;3885;51.474;-2.576;2023-04-03T05:04:05;2.33;;;1.70;;
7685;SDS011;3885;51.474;-2.576;2023-04-03T05:06:32;8.70;;;2.77;;
7685;SDS011;3885;51.474;-2.576;2023-04-03T05:09:00;2.70;;;1.40;;
7685;SDS011;3885;51.474;-2.576;2023-04-03T05:11:27;7.20;;;1.43;;
7685;SDS011;3885;51.474;-2.576;2023-04-03T05:13:54;4.33;;;2.40;;
7685;SDS011;3885;51.474;-2.576;2023-04-03T05:16:22;4.20;;;1.90;;
7685;SDS011;3885;51.474;-2.576;2023-04-03T05:18:49;2.90;;;1.53;;
7685;SDS011;3885;51.474;-2.576;2023-04-03T05:21:16;5.83;;;2.73;;
7685;SDS011;3885;51.474;-2.576;2023-04-03T05:23:44;2.90;;;1.80;;
7685;SDS011;3885;51.474;-2.576;2023-04-03T05:26:11;2.90;;;1.33;;
7685;SDS011;3885;51.474;-2.576;2023-04-03T05:28:37;2.67;;;2.47;;
7685;SDS011;3885;51.474;-2.576;2023-04-03T05:31:04;11.87;;;2.13;;
7685;SDS011;3885;51.474;-2.576;2023-04-03T05:33:33;4.93;;;2.20;;
7685;SDS011;3885;51.474;-2.576;2023-04-03T05:36:01;3.47;;;2.10;;
7685;SDS011;3885;51.474;-2.576;2023-04-03T05:38:29;1.50;;;1.40;;
7685;SDS011;3885;51.474;-2.576;2023-04-03T05:40:56;2.70;;;1.70;;
7685;SDS011;3885;51.474;-2.576;2023-04-03T05:43:23;8.53;;;1.70;;
7685;SDS011;3885;51.474;-2.576;2023-04-03T05:45:50;2.47;;;2.27;;
7685;SDS011;3885;51.474;-2.576;2023-04-03T05:48:18;2.10;;;1.53;;
7685;SDS011;3885;51.474;-2.576;2023-04-03T05:50:46;2.40;;;1.43;;
7685;SDS011;3885;51.474;-2.576;2023-04-03T05:53:15;3.13;;;2.20;;
7685;SDS011;3885;51.474;-2.576;2023-04-03T05:55:46;9.80;;;2.20;;
7685;SDS011;3885;51.474;-2.576;2023-04-03T05:58:14;3.13;;;1.40;;
7685;SDS011;3885;51.474;-2.576;2023-04-03T06:00:41;4.83;;;1.90;;
7685;SDS011;3885;51.474;-2.576;2023-04-03T06:03:09;2.40;;;1.70;;
7685;SDS011;3885;51.474;-2.576;2023-04-03T06:05:35;3.73;;;2.10;;
7685;SDS011;3885;51.474;-2.576;2023-04-03T06:08:04;4.03;;;1.73;;
7685;SDS011;3885;51.474;-2.576;2023-04-03T06:10:31;2.50;;;1.57;;
7685;SDS011;3885;51.474;-2.576;2023-04-03T06:12:58;6.63;;;1.80;;
7685;SDS011;3885;51.474;-2.576;2023-04-03T06:15:25;2.50;;;1.97;;
7685;SDS011;3885;51.474;-2.576;2023-04-03T06:17:53;13.53;;;2.10;;
7685;SDS011;3885;51.474;-2.576;2023-04-03T06:20:20;2.60;;;2.40;;
7685;SDS011;3885;51.474;-2.576;2023-04-03T06:22:47;14.60;;;1.50;;
7685;SDS011;3885;51.474;-2.576;2023-04-03T06:25:15;2.40;;;1.47;;
7685;SDS011;3885;51.474;-2.576;2023-04-03T06:27:43;8.23;;;2.07;;
7685;SDS011;3885;51.474;-2.576;2023-04-03T06:30:11;1.90;;;1.30;;
7685;SDS011;3885;51.474;-2.576;2023-04-03T06:32:38;4.03;;;1.60;;
7685;SDS011;3885;51.474;-2.576;2023-04-03T06:35:05;5.13;;;1.30;;
7685;SDS011;3885;51.474;-2.576;2023-04-03T06:37:33;2.00;;;1.77;;
7685;SDS011;3885;51.474;-2.576;2023-04-03T06:40:00;2.07;;;1.77;;
7685;SDS011;3885;51.474;-2.576;2023-04-03T06:42:29;2.97;;;2.40;;
7685;SDS011;3885;51.474;-2.576;2023-04-03T06:44:57;5.50;;;1.73;;
7685;SDS011;3885;51.474;-2.576;2023-04-03T06:47:24;2.63;;;1.57;;
7685;SDS011;3885;51.474;-2.576;2023-04-03T06:49:51;4.63;;;1.73;;
7685;SDS011;3885;51.474;-2.576;2023-04-03T06:52:18;6.20;;;2.17;;
7685;SDS011;3885;51.474;-2.576;2023-04-03T06:54:45;1.90;;;1.80;;
7685;SDS011;3885;51.474;-2.576;2023-04-03T06:57:13;1.80;;;1.33;;
7685;SDS011;3885;51.474;-2.576;2023-04-03T06:59:41;3.07;;;1.77;;
7685;SDS011;3885;51.474;-2.576;2023-04-03T07:02:09;5.70;;;2.07;;
7685;SDS011;3885;51.474;-2.576;2023-04-03T07:04:37;4.23;;;2.20;;
7685;SDS011;3885;51.474;-2.576;2023-04-03T07:07:04;8.63;;;2.13;;
7685;SDS011;3885;51.474;-2.576;2023-04-03T07:09:32;2.13;;;1.90;;
7685;SDS011;3885;51.474;-2.576;2023-04-03T07:11:59;4.83;;;3.00;;
7685;SDS011;3885;51.474;-2.576;2023-04-03T07:14:26;14.17;;;2.63;;
7685;SDS011;3885;51.474;-2.576;2023-04-03T07:16:55;5.40;;;2.37;;
7685;SDS011;3885;51.474;-2.576;2023-04-03T07:19:22;10.23;;;3.27;;
7685;SDS011;3885;51.474;-2.576;2023-04-03T07:21:52;3.50;;;2.40;;
7685;SDS011;3885;51.474;-2.576;2023-04-03T07:24:19;22.47;;;3.77;;
7685;SDS011;3885;51.474;-2.576;2023-04-03T07:26:48;16.00;;;2.37;;
7685;SDS011;3885;51.474;-2.576;2023-04-03T07:29:15;3.53;;;2.40;;
7685;SDS011;3885;51.474;-2.576;2023-04-03T07:31:42;6.50;;;2.43;;
7685;SDS011;3885;51.474;-2.576;2023-04-03T07:34:11;5.80;;;2.80;;
7685;SDS011;3885;51.474;-2.576;2023-04-03T07:36:38;6.67;;;2.13;;
7685;SDS011;3885;51.474;-2.576;2023-04-03T07:39:05;3.73;;;2.57;;
7685;SDS011;3885;51.474;-2.576;2023-04-03T07:41:33;4.23;;;2.73;;
7685;SDS011;3885;51.474;-2.576;2023-04-03T07:44:00;3.73;;;2.67;;
7685;SDS011;3885;51.474;-2.576;2023-04-03T07:46:27;10.07;;;2.80;;
7685;SDS011;3885;51.474;-2.576;2023-04-03T07:48:54;7.00;;;2.73;;
7685;SDS011;3885;51.474;-2.576;2023-04-03T07:51:23;19.00;;;4.60;;
7685;SDS011;3885;51.474;-2.576;2023-04-03T07:53:51;6.53;;;2.60;;
7685;SDS011;3885;51.474;-2.576;2023-04-03T07:56:18;18.17;;;3.30;;
7685;SDS011;3885;51.474;-2.576;2023-04-03T07:58:45;3.17;;;2.13;;
7685;SDS011;3885;51.474;-2.576;2023-04-03T08:01:12;9.50;;;2.50;;
7685;SDS011;3885;51.474;-2.576;2023-04-03T08:03:39;8.00;;;2.67;;
7685;SDS011;3885;51.474;-2.576;2023-04-03T08:06:07;5.20;;;2.47;;
7685;SDS011;3885;51.474;-2.576;2023-04-03T08:08:36;3.07;;;1.83;;
7685;SDS011;3885;51.474;-2.576;2023-04-03T08:11:03;5.50;;;2.10;;
7685;SDS011;3885;51.474;-2.576;2023-04-03T08:13:31;3.40;;;1.90;;
7685;SDS011;3885;51.474;-2.576;2023-04-03T08:16:06;21.97;;;2.67;;
7685;SDS011;3885;51.474;-2.576;2023-04-03T08:18:34;6.47;;;2.13;;
7685;SDS011;3885;51.474;-2.576;2023-04-03T08:21:04;7.13;;;2.30;;
7685;SDS011;3885;51.474;-2.576;2023-04-03T08:23:32;7.73;;;2.37;;
7685;SDS011;3885;51.474;-2.576;2023-04-03T08:26:04;2.60;;;1.53;;
7685;SDS011;3885;51.474;-2.576;2023-04-03T08:28:32;5.20;;;1.90;;
7685;SDS011;3885;51.474;-2.576;2023-04-03T08:31:02;1.30;;;1.17;;
7685;SDS011;3885;51.474;-2.576;2023-04-03T08:33:31;9.00;;;1.17;;
7685;SDS011;3885;51.474;-2.576;2023-04-03T08:35:58;1.47;;;1.27;;
7685;SDS011;3885;51.474;-2.576;2023-04-03T08:38:25;14.30;;;1.90;;
7685;SDS011;3885;51.474;-2.576;2023-04-03T08:41:04;2.50;;;1.60;;
7685;SDS011;3885;51.474;-2.576;2023-04-03T08:43:39;21.43;;;1.83;;
7685;SDS011;3885;51.474;-2.576;2023-04-03T08:46:09;13.67;;;1.47;;
7685;SDS011;3885;51.474;-2.576;2023-04-03T08:48:40;9.10;;;1.80;;
7685;SDS011;3885;51.474;-2.576;2023-04-03T08:51:11;5.17;;;1.27;;
7685;SDS011;3885;51.474;-2.576;2023-04-03T08:53:41;8.93;;;1.20;;
7685;SDS011;3885;51.474;-2.576;2023-04-03T08:56:13;4.77;;;1.77;;
7685;SDS011;3885;51.474;-2.576;2023-04-03T08:58:44;1.87;;;1.20;;
7685;SDS011;3885;51.474;-2.576;2023-04-03T09:01:16;3.30;;;1.53;;
7685;SDS011;3885;51.474;-2.576;2023-04-03T09:03:46;1.57;;;0.90;;
7685;SDS011;3885;51.474;-2.576;2023-04-03T09:06:13;2.40;;;1.83;;
7685;SDS011;3885;51.474;-2.576;2023-04-03T09:08:43;1.53;;;1.20;;
7685;SDS011;3885;51.474;-2.576;2023-04-03T09:11:15;2.03;;;1.03;;
7685;SDS011;3885;51.474;-2.576;2023-04-03T09:13:48;12.07;;;1.70;;
7685;SDS011;3885;51.474;-2.576;2023-04-03T09:16:20;7.60;;;1.70;;
7685;SDS011;3885;51.474;-2.576;2023-04-03T09:19:01;6.07;;;1.47;;
7685;SDS011;3885;51.474;-2.576;2023-04-03T09:21:34;14.80;;;1.47;;
7685;SDS011;3885;51.474;-2.576;2023-04-03T09:24:04;1.80;;;1.10;;
7685;SDS011;3885;51.474;-2.576;2023-04-03T09:26:35;4.40;;;1.70;;
7685;SDS011;3885;51.474;-2.576;2023-04-03T09:29:08;11.20;;;1.80;;
7685;SDS011;3885;51.474;-2.576;2023-04-03T09:31:44;3.53;;;1.40;;
7685;SDS011;3885;51.474;-2.576;2023-04-03T09:34:15;3.93;;;1.40;;
7685;SDS011;3885;51.474;-2.576;2023-04-03T09:36:48;2.00;;;1.10;;
7685;SDS011;3885;51.474;-2.576;2023-04-03T09:39:17;3.43;;;1.80;;
7685;SDS011;3885;51.474;-2.576;2023-04-03T09:41:56;8.37;;;1.97;;
7685;SDS011;3885;51.474;-2.576;2023-04-03T09:44:25;3.83;;;1.10;;
7685;SDS011;3885;51.474;-2.576;2023-04-03T09:46:53;11.30;;;1.83;;
7685;SDS011;3885;51.474;-2.576;2023-04-03T09:49:20;2.70;;;1.60;;
7685;SDS011;3885;51.474;-2.576;2023-04-03T09:51:47;13.13;;;2.47;;
7685;SDS011;3885;51.474;-2.576;2023-04-03T09:57:09;2.30;;;1.87;;
7685;SDS011;3885;51.474;-2.576;2023-04-03T09:59:43;8.53;;;1.90;;
7685;SDS011;3885;51.474;-2.576;2023-04-03T10:02:25;3.10;;;1.97;;
7685;SDS011;3885;51.474;-2.576;2023-04-03T10:04:56;4.30;;;1.80;;
7685;SDS011;3885;51.474;-2.576;2023-04-03T10:07:26;6.50;;;1.87;;
7685;SDS011;3885;51.474;-2.576;2023-04-03T10:09:56;4.30;;;2.33;;
7685;SDS011;3885;51.474;-2.576;2023-04-03T10:12:25;7.40;;;2.10;;
7685;SDS011;3885;51.474;-2.576;2023-04-03T10:14:56;20.60;;;2.67;;
7685;SDS011;3885;51.474;-2.576;2023-04-03T10:17:29;4.90;;;2.50;;
7685;SDS011;3885;51.474;-2.576;2023-04-03T10:20:07;4.10;;;1.90;;
7685;SDS011;3885;51.474;-2.576;2023-04-03T10:22:48;3.87;;;1.87;;
7685;SDS011;3885;51.474;-2.576;2023-04-03T10:25:27;4.90;;;1.90;;
7685;SDS011;3885;51.474;-2.576;2023-04-03T10:28:03;11.83;;;2.07;;
7685;SDS011;3885;51.474;-2.576;2023-04-03T10:30:38;2.87;;;1.90;;
7685;SDS011;3885;51.474;-2.576;2023-04-03T10:33:18;7.10;;;2.03;;
7685;SDS011;3885;51.474;-2.576;2023-04-03T10:35:54;3.20;;;1.90;;
7685;SDS011;3885;51.474;-2.576;2023-04-03T10:38:28;8.17;;;2.53;;
7685;SDS011;3885;51.474;-2.576;2023-04-03T10:40:59;2.50;;;1.43;;
7685;SDS011;3885;51.474;-2.576;2023-04-03T10:43:36;6.03;;;2.30;;
7685;SDS011;3885;51.474;-2.576;2023-04-03T10:46:06;3.27;;;2.03;;
7685;SDS011;3885;51.474;-2.576;2023-04-03T10:48:44;7.53;;;2.23;;
7685;SDS011;3885;51.474;-2.576;2023-04-03T10:51:17;5.70;;;3.07;;
7685;SDS011;3885;51.474;-2.576;2023-04-03T10:53:52;11.33;;;2.30;;
7685;SDS011;3885;51.474;-2.576;2023-04-03T10:56:29;10.40;;;1.93;;
7685;SDS011;3885;51.474;-2.576;2023-04-03T10:59:02;7.70;;;2.20;;
7685;SDS011;3885;51.474;-2.576;2023-04-03T11:01:33;7.10;;;2.23;;
7685;SDS011;3885;51.474;-2.576;2023-04-03T11:04:05;5.43;;;1.97;;
7685;SDS011;3885;51.474;-2.576;2023-04-03T11:06:34;8.23;;;2.20;;
7685;SDS011;3885;51.474;-2.576;2023-04-03T11:09:07;3.10;;;1.70;;
7685;SDS011;3885;51.474;-2.576;2023-04-03T11:11:45;2.13;;;1.77;;
7685;SDS011;3885;51.474;-2.576;2023-04-03T11:14:17;5.33;;;1.77;;
7685;SDS011;3885;51.474;-2.576;2023-04-03T11:16:49;4.90;;;2.30;;
7685;SDS011;3885;51.474;-2.576;2023-04-03T11:19:26;2.03;;;1.43;;
7685;SDS011;3885;51.474;-2.576;2023-04-03T11:22:01;3.60;;;1.57;;
7685;SDS011;3885;51.474;-2.576;2023-04-03T11:24:34;10.60;;;2.50;;
7685;SDS011;3885;51.474;-2.576;2023-04-03T11:27:05;3.80;;;1.43;;
7685;SDS011;3885;51.474;-2.576;2023-04-03T11:29:36;8.40;;;3.13;;
7685;SDS011;3885;51.474;-2.576;2023-04-03T11:32:13;2.70;;;1.90;;
7685;SDS011;3885;51.474;-2.576;2023-04-03T11:34:53;4.50;;;1.70;;
7685;SDS011;3885;51.474;-2.576;2023-04-03T11:37:25;4.30;;;2.37;;
7685;SDS011;3885;51.474;-2.576;2023-04-03T11:39:54;2.33;;;1.53;;
7685;SDS011;3885;51.474;-2.576;2023-04-03T11:42:25;3.23;;;2.10;;
7685;SDS011;3885;51.474;-2.576;2023-04-03T11:47:45;4.87;;;1.93;;
7685;SDS011;3885;51.474;-2.576;2023-04-03T11:53:34;2.17;;;2.00;;
7685;SDS011;3885;51.474;-2.576;2023-04-03T11:59:16;7.50;;;1.90;;
7685;SDS011;3885;51.474;-2.576;2023-04-03T12:01:49;3.50;;;2.00;;
7685;SDS011;3885;51.474;-2.576;2023-04-03T12:04:18;8.00;;;2.13;;
7685;SDS011;3885;51.474;-2.576;2023-04-03T12:12:42;3.40;;;2.17;;
7685;SDS011;3885;51.474;-2.576;2023-04-03T12:24:24;8.03;;;2.63;;
7685;SDS011;3885;51.474;-2.576;2023-04-03T12:27:01;3.83;;;2.30;;
7685;SDS011;3885;51.474;-2.576;2023-04-03T12:29:42;5.50;;;1.70;;
7685;SDS011;3885;51.474;-2.576;2023-04-03T12:32:13;2.63;;;1.70;;
7685;SDS011;3885;51.474;-2.576;2023-04-03T12:34:53;6.17;;;2.17;;
7685;SDS011;3885;51.474;-2.576;2023-04-03T12:37:37;5.80;;;2.30;;
7685;SDS011;3885;51.474;-2.576;2023-04-03T12:40:23;5.80;;;1.60;;
7685;SDS011;3885;51.474;-2.576;2023-04-03T12:42:57;5.63;;;2.53;;
7685;SDS011;3885;51.474;-2.576;2023-04-03T12:45:39;9.93;;;2.23;;
7685;SDS011;3885;51.474;-2.576;2023-04-03T12:48:12;2.57;;;2.37;;
7685;SDS011;3885;51.474;-2.576;2023-04-03T12:50:40;7.83;;;2.70;;
7685;SDS011;3885;51.474;-2.576;2023-04-03T12:53:11;11.43;;;2.07;;
7685;SDS011;3885;51.474;-2.576;2023-04-03T12:55:43;4.33;;;1.83;;
7685;SDS011;3885;51.474;-2.576;2023-04-03T12:58:14;4.17;;;1.97;;
7685;SDS011;3885;51.474;-2.576;2023-04-03T13:00:43;2.87;;;2.40;;
7685;SDS011;3885;51.474;-2.576;2023-04-03T13:03:19;7.03;;;2.00;;
7685;SDS011;3885;51.474;-2.576;2023-04-03T13:05:58;2.50;;;2.00;;
7685;SDS011;3885;51.474;-2.576;2023-04-03T13:08:29;7.33;;;2.63;;
7685;SDS011;3885;51.474;-2.576;2023-04-03T13:10:59;8.27;;;2.90;;
7685;SDS011;3885;51.474;-2.576;2023-04-03T13:13:30;4.37;;;2.20;;
7685;SDS011;3885;51.474;-2.576;2023-04-03T13:15:57;9.40;;;2.93;;
7685;SDS011;3885;51.474;-2.576;2023-04-03T13:18:26;7.23;;;1.90;;
7685;SDS011;3885;51.474;-2.576;2023-04-03T13:20:53;4.60;;;2.17;;
7685;SDS011;3885;51.474;-2.576;2023-04-03T13:23:23;9.13;;;2.40;;
7685;SDS011;3885;51.474;-2.576;2023-04-03T13:25:51;2.87;;;2.13;;
7685;SDS011;3885;51.474;-2.576;2023-04-03T13:28:20;9.90;;;2.50;;
7685;SDS011;3885;51.474;-2.576;2023-04-03T13:30:54;4.80;;;2.17;;
7685;SDS011;3885;51.474;-2.576;2023-04-03T13:33:28;9.80;;;2.50;;
7685;SDS011;3885;51.474;-2.576;2023-04-03T13:35:58;2.97;;;2.33;;
7685;SDS011;3885;51.474;-2.576;2023-04-03T13:38:30;9.23;;;3.30;;
7685;SDS011;3885;51.474;-2.576;2023-04-03T13:40:59;5.93;;;2.60;;
7685;SDS011;3885;51.474;-2.576;2023-04-03T13:43:31;5.70;;;3.10;;
7685;SDS011;3885;51.474;-2.576;2023-04-03T13:46:01;5.10;;;2.80;;
7685;SDS011;3885;51.474;-2.576;2023-04-03T13:48:35;2.53;;;2.33;;
7685;SDS011;3885;51.474;-2.576;2023-04-03T13:51:03;3.53;;;3.00;;
7685;SDS011;3885;51.474;-2.576;2023-04-03T13:53:31;4.00;;;2.70;;
7685;SDS011;3885;51.474;-2.576;2023-04-03T13:56:05;3.30;;;2.57;;
7685;SDS011;3885;51.474;-2.576;2023-04-03T13:58:35;7.60;;;2.60;;
7685;SDS011;3885;51.474;-2.576;2023-04-03T14:01:07;5.73;;;2.47;;
7685;SDS011;3885;51.474;-2.576;2023-04-03T14:03:38;6.50;;;2.93;;
7685;SDS011;3885;51.474;-2.576;2023-04-03T14:06:09;6.77;;;2.80;;
7685;SDS011;3885;51.474;-2.576;2023-04-03T14:08:37;3.53;;;2.40;;
7685;SDS011;3885;51.474;-2.576;2023-04-03T14:11:04;3.37;;;2.10;;
7685;SDS011;3885;51.474;-2.576;2023-04-03T14:13:32;3.87;;;2.43;;
7685;SDS011;3885;51.474;-2.576;2023-04-03T14:16:01;4.63;;;2.70;;
7685;SDS011;3885;51.474;-2.576;2023-04-03T14:18:28;5.50;;;2.73;;
7685;SDS011;3885;51.474;-2.576;2023-04-03T14:20:55;5.80;;;2.50;;
7685;SDS011;3885;51.474;-2.576;2023-04-03T14:23:22;2.57;;;2.37;;
7685;SDS011;3885;51.474;-2.576;2023-04-03T14:25:49;5.87;;;3.57;;
7685;SDS011;3885;51.474;-2.576;2023-04-03T14:28:17;4.10;;;2.80;;
7685;SDS011;3885;51.474;-2.576;2023-04-03T14:30:47;4.00;;;3.10;;
7685;SDS011;3885;51.474;-2.576;2023-04-03T14:33:16;3.80;;;3.33;;
7685;SDS011;3885;51.474;-2.576;2023-04-03T14:35:44;3.47;;;3.17;;
7685;SDS011;3885;51.474;-2.576;2023-04-03T14:38:13;8.83;;;3.17;;
7685;SDS011;3885;51.474;-2.576;2023-04-03T14:40:49;6.90;;;3.13;;
7685;SDS011;3885;51.474;-2.576;2023-04-03T14:43:16;3.93;;;3.03;;
7685;SDS011;3885;51.474;-2.576;2023-04-03T14:45:46;3.30;;;3.00;;
7685;SDS011;3885;51.474;-2.576;2023-04-03T14:48:15;6.30;;;3.07;;
7685;SDS011;3885;51.474;-2.576;2023-04-03T14:50:45;4.03;;;3.07;;
7685;SDS011;3885;51.474;-2.576;2023-04-03T14:53:13;10.80;;;3.37;;
7685;SDS011;3885;51.474;-2.576;2023-04-03T14:55:41;8.57;;;2.77;;
7685;SDS011;3885;51.474;-2.576;2023-04-03T14:58:11;9.33;;;3.13;;
7685;SDS011;3885;51.474;-2.576;2023-04-03T15:00:39;4.77;;;2.73;;
7685;SDS011;3885;51.474;-2.576;2023-04-03T15:03:10;7.23;;;3.60;;
7685;SDS011;3885;51.474;-2.576;2023-04-03T15:05:39;4.20;;;2.97;;
7685;SDS011;3885;51.474;-2.576;2023-04-03T15:08:08;5.73;;;2.80;;
7685;SDS011;3885;51.474;-2.576;2023-04-03T15:10:44;5.83;;;2.90;;
7685;SDS011;3885;51.474;-2.576;2023-04-03T15:13:11;4.13;;;2.50;;
7685;SDS011;3885;51.474;-2.576;2023-04-03T15:15:39;7.83;;;2.73;;
7685;SDS011;3885;51.474;-2.576;2023-04-03T15:18:09;4.10;;;2.80;;
7685;SDS011;3885;51.474;-2.576;2023-04-03T15:20:38;7.60;;;2.97;;
7685;SDS011;3885;51.474;-2.576;2023-04-03T15:23:05;3.90;;;2.27;;
7685;SDS011;3885;51.474;-2.576;2023-04-03T15:25:33;2.63;;;2.40;;
7685;SDS011;3885;51.474;-2.576;2023-04-03T15:28:00;14.73;;;3.60;;
7685;SDS011;3885;51.474;-2.576;2023-04-03T15:30:27;12.80;;;3.67;;
7685;SDS011;3885;51.474;-2.576;2023-04-03T15:32:54;5.47;;;2.80;;
7685;SDS011;3885;51.474;-2.576;2023-04-03T15:35:21;6.20;;;2.73;;
7685;SDS011;3885;51.474;-2.576;2023-04-03T15:37:49;9.63;;;3.10;;
7685;SDS011;3885;51.474;-2.576;2023-04-03T15:40:16;6.90;;;3.67;;
7685;SDS011;3885;51.474;-2.576;2023-04-03T15:42:43;7.10;;;3.33;;